Emerald, Pennsylvania
Current Conditions -  °F | °C
As of 9:31 AM on Thursday 27 Nov 2014 (Local Time) from KABE Reporting Station
Light Snow Light Snow  
Wind Chill: 34°   Ceiling: 3100
Heat Index: 34°   Visibility: 4mi
Dew Point: 30°   Wind: 3mph
Humidity: 87%   Direction: 280°W
Pressure: 30.02"   Gusts: NA
Location:  40.7371°N, 75.6374°W
Report Text: KABE 271431Z 28003KT 4SM -SN BR FEW008 SCT014 OVC031 01/M01 A3002 RMK AO2 P0001 $
Loading
Personal Weather Stations






























Interactive Weather Map New forecast layout! Learn more

10-Day Weather Forecast

Advertisements
Track Severe Weather on mobile